Time;durP1;ratioP1;P1;durP2;ratioP2;P2;SDS_P1;SDS_P2;PMS_P1;PMS_P2;Temp;Humidity;BMP_temperature;BMP_pressure;BME280_temperature;BME280_humidity;BME280_pressure;Samples;Min_cycle;Max_cycle;Signal;HPM_P1;HPM_P2
2022/09/17 00:01:22;;;;;;;;;;;;;;;;;;4908017;29;19924;-86
2022/09/17 00:03:47;;;;;;;;;;;;;;;;;;4910605;29;20350;-85
2022/09/17 00:06:12;;;;;;;;;;;;;;;;;;4906450;29;19916;-86
2022/09/17 00:08:38;;;;;;;;;;;;;;;;;;4907079;29;19911;-86
2022/09/17 00:11:03;;;;;;;;;;;;;;;;;;4906934;29;20416;-85
2022/09/17 00:13:28;;;;;;;;;;;;;;;;;;4918640;29;19916;-86
2022/09/17 00:15:53;;;;;;;;;;;;;;;;;;4913339;29;19915;-86
2022/09/17 00:18:18;;;;;;;;;;;;;;;;;;4908879;29;20323;-86
2022/09/17 00:20:43;;;;;;;;;;;;;;;;;;4909508;29;19915;-85
2022/09/17 00:23:09;;;;;;;;;;;;;;;;;;4908893;29;19920;-86
2022/09/17 00:25:34;;;;;;;;;;;;;;;;;;4908692;29;20353;-85
2022/09/17 00:27:59;;;;;;;;;;;;;;;;;;4904348;29;19919;-87
2022/09/17 00:30:24;;;;;;;;;;;;;;;;;;4912404;29;20401;-86
2022/09/17 00:32:52;;;;;;;;;;;;;;;;;;4906093;29;20000;-86
2022/09/17 00:35:17;;;;;;;;;;;;;;;;;;4911181;29;19971;-86
2022/09/17 00:37:42;;;;;;;;;;;;;;;;;;4901308;29;19919;-86
2022/09/17 00:40:07;;;;;;;;;;;;;;;;;;4911103;29;20203;-86
2022/09/17 00:42:32;;;;;;;;;;;;;;;;;;4905121;29;20293;-86
2022/09/17 00:44:57;;;;;;;;;;;;;;;;;;4915623;29;20295;-86
2022/09/17 00:47:23;;;;;;;;;;;;;;;;;;4908678;29;19923;-86
2022/09/17 00:49:48;;;;;;;;;;;;;;;;;;4913942;29;19912;-86
2022/09/17 00:52:13;;;;;;;;;;;;;;;;;;4904800;29;19919;-87
2022/09/17 00:54:38;;;;;;;;;;;;;;;;;;4911038;29;20345;-86
2022/09/17 00:57:03;;;;;;;;;;;;;;;;;;4910780;29;19923;-87
2022/09/17 00:59:29;;;;;;;;;;;;;;;;;;4914242;29;19920;-87
2022/09/17 01:01:54;;;;;;;;;;;;;;;;;;4909057;29;19919;-86
2022/09/17 01:04:19;;;;;;;;;;;;;;;;;;4908298;29;19915;-86
2022/09/17 01:06:44;;;;;;;;;;;;;;;;;;4912076;29;19918;-85
2022/09/17 01:09:09;;;;;;;;;;;;;;;;;;4905832;29;20424;-86
2022/09/17 01:11:34;;;;;;;;;;;;;;;;;;4913575;29;19923;-86
2022/09/17 01:14:00;;;;;;;;;;;;;;;;;;4905030;29;20522;-86
2022/09/17 01:16:25;;;;;;;;;;;;;;;;;;4911904;29;19915;-86
2022/09/17 01:18:50;;;;;;;;;;;;;;;;;;4908088;29;19915;-86
2022/09/17 01:21:15;;;;;;;;;;;;;;;;;;4912292;29;19972;-85
2022/09/17 01:23:40;;;;;;;;;;;;;;;;;;4907438;29;20416;-86
2022/09/17 01:26:06;;;;;;;;;;;;;;;;;;4909951;29;19921;-86
2022/09/17 01:28:32;;;;;;;;;;;;;;;;;;4906175;29;20055;-86
2022/09/17 01:30:58;;;;;;;;;;;;;;;;;;4909427;29;19922;-86
2022/09/17 01:33:23;;;;;;;;;;;;;;;;;;4905162;29;19922;-86
2022/09/17 01:35:48;;;;;;;;;;;;;;;;;;4913712;29;20349;-86
2022/09/17 01:38:13;;;;;;;;;;;;;;;;;;4902534;29;19919;-85
2022/09/17 01:40:38;;;;;;;;;;;;;;;;;;4916851;29;20057;-86
2022/09/17 01:43:04;;;;;;;;;;;;;;;;;;4908355;29;19926;-86
2022/09/17 01:45:29;;;;;;;;;;;;;;;;;;4915979;29;19915;-87
2022/09/17 01:47:54;;;;;;;;;;;;;;;;;;4907849;29;20411;-87
2022/09/17 01:50:19;;;;;;;;;;;;;;;;;;4911917;29;19919;-86
2022/09/17 01:52:44;;;;;;;;;;;;;;;;;;4909771;29;20383;-86
2022/09/17 01:55:10;;;;;;;;;;;;;;;;;;4909181;29;19993;-87
2022/09/17 01:57:35;;;;;;;;;;;;;;;;;;4917792;29;19915;-86
2022/09/17 02:00:00;;;;;;;;;;;;;;;;;;4902361;29;19934;-86
2022/09/17 02:02:25;;;;;;;;;;;;;;;;;;4906585;29;21466;-86
2022/09/17 02:04:50;;;;;;;;;;;;;;;;;;4908188;29;19939;-86
2022/09/17 02:07:16;;;;;;;;;;;;;;;;;;4911865;29;19938;-86
2022/09/17 02:09:41;;;;;;;;;;;;;;;;;;4899594;29;19971;-86
2022/09/17 02:12:07;;;;;;;;;;;;;;;;;;4908732;29;19919;-86
2022/09/17 02:14:32;;;;;;;;;;;;;;;;;;4908909;29;19920;-85
2022/09/17 02:16:57;;;;;;;;;;;;;;;;;;4901991;29;19919;-86
2022/09/17 02:19:22;;;;;;;;;;;;;;;;;;4902672;29;19915;-86
2022/09/17 02:21:47;;;;;;;;;;;;;;;;;;4907308;29;20441;-87
2022/09/17 02:24:13;;;;;;;;;;;;;;;;;;4901067;29;20621;-87
2022/09/17 02:26:38;;;;;;;;;;;;;;;;;;4905731;29;20333;-86
2022/09/17 02:29:03;;;;;;;;;;;;;;;;;;4904708;29;20514;-87
2022/09/17 02:31:28;;;;;;;;;;;;;;;;;;4909006;29;19919;-87
2022/09/17 02:33:53;;;;;;;;;;;;;;;;;;4903370;29;19974;-86
2022/09/17 02:36:19;;;;;;;;;;;;;;;;;;4905784;29;20159;-86
2022/09/17 02:38:44;;;;;;;;;;;;;;;;;;4899170;29;20297;-86
2022/09/17 02:41:09;;;;;;;;;;;;;;;;;;4902017;29;19915;-86
2022/09/17 02:43:34;;;;;;;;;;;;;;;;;;4897656;29;19919;-86
2022/09/17 02:46:00;;;;;;;;;;;;;;;;;;4903087;29;19923;-86
2022/09/17 02:48:25;;;;;;;;;;;;;;;;;;4905016;29;19946;-87
2022/09/17 02:50:50;;;;;;;;;;;;;;;;;;4898513;29;20400;-86
2022/09/17 02:53:15;;;;;;;;;;;;;;;;;;4903805;29;19930;-86
2022/09/17 02:55:41;;;;;;;;;;;;;;;;;;4903874;29;19994;-86
2022/09/17 02:58:06;;;;;;;;;;;;;;;;;;4906749;29;19972;-86
2022/09/17 03:00:31;;;;;;;;;;;;;;;;;;4901629;29;19935;-86
2022/09/17 03:02:57;;;;;;;;;;;;;;;;;;4900958;29;19967;-86
2022/09/17 03:05:22;;;;;;;;;;;;;;;;;;4897623;29;19922;-86
2022/09/17 03:07:47;;;;;;;;;;;;;;;;;;4902024;29;20650;-87
2022/09/17 03:10:12;;;;;;;;;;;;;;;;;;4898335;29;20382;-86
2022/09/17 03:12:38;;;;;;;;;;;;;;;;;;4906935;29;19916;-86
2022/09/17 03:15:03;;;;;;;;;;;;;;;;;;4901318;29;20368;-86
2022/09/17 03:17:28;;;;;;;;;;;;;;;;;;4904800;29;20438;-87
2022/09/17 03:19:53;;;;;;;;;;;;;;;;;;4898994;29;19916;-87
2022/09/17 03:22:18;;;;;;;;;;;;;;;;;;4903092;29;20014;-86
2022/09/17 03:24:46;;;;;;;;;;;;;;;;;;4899502;29;20015;-86
2022/09/17 03:27:11;;;;;;;;;;;;;;;;;;4902793;29;19922;-88
2022/09/17 03:29:36;;;;;;;;;;;;;;;;;;4901941;29;19923;-87
2022/09/17 03:32:01;;;;;;;;;;;;;;;;;;4902152;29;20425;-88
2022/09/17 03:34:26;;;;;;;;;;;;;;;;;;4901775;29;19926;-87
2022/09/17 03:36:52;;;;;;;;;;;;;;;;;;4897607;29;19931;-87
2022/09/17 03:39:17;;;;;;;;;;;;;;;;;;4902984;29;19919;-86
2022/09/17 03:41:42;;;;;;;;;;;;;;;;;;4898881;29;19919;-87
2022/09/17 03:44:09;;;;;;;;;;;;;;;;;;4901211;29;20486;-85
2022/09/17 03:46:34;;;;;;;;;;;;;;;;;;4902697;29;19915;-86
2022/09/17 03:48:59;;;;;;;;;;;;;;;;;;4900649;29;19927;-87
2022/09/17 03:51:24;;;;;;;;;;;;;;;;;;4896166;29;19920;-86
2022/09/17 03:53:49;;;;;;;;;;;;;;;;;;4905362;29;19970;-87
2022/09/17 03:56:16;;;;;;;;;;;;;;;;;;4898679;29;19974;-85
2022/09/17 03:58:41;;;;;;;;;;;;;;;;;;4904088;29;20540;-85
2022/09/17 04:01:06;;;;;;;;;;;;;;;;;;4896513;29;19923;-85
2022/09/17 04:03:31;;;;;;;;;;;;;;;;;;4901397;29;19923;-87
2022/09/17 04:05:57;;;;;;;;;;;;;;;;;;4901308;29;20021;-85
2022/09/17 04:08:22;;;;;;;;;;;;;;;;;;4903153;29;20024;-86
2022/09/17 04:10:47;;;;;;;;;;;;;;;;;;4898776;29;20281;-85
2022/09/17 04:13:12;;;;;;;;;;;;;;;;;;4898806;29;20058;-84
2022/09/17 04:15:38;;;;;;;;;;;;;;;;;;4898160;29;20289;-84
2022/09/17 04:18:03;;;;;;;;;;;;;;;;;;4899087;29;20041;-86
2022/09/17 04:20:28;;;;;;;;;;;;;;;;;;4900143;29;19916;-87
2022/09/17 04:22:54;;;;;;;;;;;;;;;;;;4900619;29;19939;-87
2022/09/17 04:25:19;;;;;;;;;;;;;;;;;;4902418;29;20371;-86
2022/09/17 04:27:44;;;;;;;;;;;;;;;;;;4897958;29;19919;-86
2022/09/17 04:30:09;;;;;;;;;;;;;;;;;;4898182;29;20009;-84
2022/09/17 04:32:34;;;;;;;;;;;;;;;;;;4899209;29;19919;-85
2022/09/17 04:35:00;;;;;;;;;;;;;;;;;;4901201;29;20357;-86
2022/09/17 04:37:25;;;;;;;;;;;;;;;;;;4903649;29;19916;-86
2022/09/17 04:39:50;;;;;;;;;;;;;;;;;;4901300;29;20356;-85
2022/09/17 04:42:15;;;;;;;;;;;;;;;;;;4901317;29;20409;-85
2022/09/17 04:44:40;;;;;;;;;;;;;;;;;;4909728;29;19916;-84
2022/09/17 04:47:05;;;;;;;;;;;;;;;;;;4904034;29;19987;-84
2022/09/17 04:49:31;;;;;;;;;;;;;;;;;;4903473;29;19915;-85
2022/09/17 04:51:56;;;;;;;;;;;;;;;;;;4902598;29;19990;-84
2022/09/17 04:54:22;;;;;;;;;;;;;;;;;;4904899;29;20222;-85
2022/09/17 04:56:47;;;;;;;;;;;;;;;;;;4904061;29;20003;-84
2022/09/17 05:01:41;;;;;;;;;;;;;;;;;;4913364;29;19927;-88
2022/09/17 05:04:06;;;;;;;;;;;;;;;;;;4917270;29;19954;-88
2022/09/17 05:06:31;;;;;;;;;;;;;;;;;;4917445;29;19939;-89
2022/09/17 05:08:56;;;;;;;;;;;;;;;;;;4917125;29;19947;-88
2022/09/17 05:11:21;;;;;;;;;;;;;;;;;;4921690;29;20023;-89
2022/09/17 05:13:47;;;;;;;;;;;;;;;;;;4905282;29;19915;-88
2022/09/17 05:16:12;;;;;;;;;;;;;;;;;;4914287;29;20391;-88
2022/09/17 05:18:37;;;;;;;;;;;;;;;;;;4915453;29;19916;-89
2022/09/17 05:21:02;;;;;;;;;;;;;;;;;;4916987;29;19911;-88
2022/09/17 05:23:27;;;;;;;;;;;;;;;;;;4915834;29;20002;-89
2022/09/17 05:25:52;;;;;;;;;;;;;;;;;;4919852;29;19919;-89
2022/09/17 05:28:18;;;;;;;;;;;;;;;;;;4908698;29;19949;-88
2022/09/17 05:30:43;;;;;;;;;;;;;;;;;;4898208;29;19915;-88
2022/09/17 05:33:08;;;;;;;;;;;;;;;;;;4898980;29;19994;-88
2022/09/17 05:35:35;;;;;;;;;;;;;;;;;;4907523;29;19919;-88
2022/09/17 05:38:00;;;;;;;;;;;;;;;;;;4909803;29;19994;-89
2022/09/17 05:40:26;;;;;;;;;;;;;;;;;;4916703;29;19946;-88
2022/09/17 05:42:51;;;;;;;;;;;;;;;;;;4916813;29;19917;-88
2022/09/17 05:45:16;;;;;;;;;;;;;;;;;;4916433;29;19999;-88
2022/09/17 05:47:41;;;;;;;;;;;;;;;;;;4913814;29;20325;-88
2022/09/17 05:50:07;;;;;;;;;;;;;;;;;;4903730;29;19915;-88
2022/09/17 05:52:32;;;;;;;;;;;;;;;;;;4917188;29;20006;-88
2022/09/17 05:54:59;;;;;;;;;;;;;;;;;;4912792;29;20506;-89
2022/09/17 05:57:24;;;;;;;;;;;;;;;;;;4929120;29;20005;-89
2022/09/17 05:59:49;;;;;;;;;;;;;;;;;;4918702;29;19915;-90
2022/09/17 06:02:14;;;;;;;;;;;;;;;;;;4923520;29;19926;-90
2022/09/17 06:04:40;;;;;;;;;;;;;;;;;;4934912;29;19917;-90
2022/09/17 06:07:08;;;;;;;;;;;;;;;;;;4921042;29;19915;-89
2022/09/17 06:09:33;;;;;;;;;;;;;;;;;;4915565;29;19994;-89
2022/09/17 06:11:59;;;;;;;;;;;;;;;;;;4922010;29;20018;-89
2022/09/17 06:14:24;;;;;;;;;;;;;;;;;;4912107;29;19926;-90
2022/09/17 06:16:49;;;;;;;;;;;;;;;;;;4915731;29;19918;-89
2022/09/17 06:19:14;;;;;;;;;;;;;;;;;;4910171;29;19922;-90
2022/09/17 06:21:39;;;;;;;;;;;;;;;;;;4923274;29;20338;-89
2022/09/17 06:24:05;;;;;;;;;;;;;;;;;;4929158;29;19914;-89
2022/09/17 06:26:30;;;;;;;;;;;;;;;;;;4915502;29;19915;-90
2022/09/17 06:28:55;;;;;;;;;;;;;;;;;;4920793;29;20349;-89
2022/09/17 06:31:20;;;;;;;;;;;;;;;;;;4922694;29;19991;-89
2022/09/17 06:33:47;;;;;;;;;;;;;;;;;;4915979;29;19916;-90
2022/09/17 06:36:12;;;;;;;;;;;;;;;;;;4917752;29;19915;-89
2022/09/17 06:38:37;;;;;;;;;;;;;;;;;;4919447;29;20411;-89
2022/09/17 06:41:02;;;;;;;;;;;;;;;;;;4920686;29;19911;-90
2022/09/17 06:43:27;;;;;;;;;;;;;;;;;;4915888;29;20391;-89
2022/09/17 06:45:53;;;;;;;;;;;;;;;;;;4916251;29;20296;-90
2022/09/17 06:48:18;;;;;;;;;;;;;;;;;;4917512;29;19911;-89
2022/09/17 06:50:43;;;;;;;;;;;;;;;;;;4912164;29;19926;-90
2022/09/17 06:53:08;;;;;;;;;;;;;;;;;;4916372;29;19919;-89
2022/09/17 06:55:33;;;;;;;;;;;;;;;;;;4913057;29;20357;-87
2022/09/17 06:57:59;;;;;;;;;;;;;;;;;;4910750;29;20014;-86
2022/09/17 07:00:24;;;;;;;;;;;;;;;;;;4913557;29;19927;-86
2022/09/17 07:02:49;;;;;;;;;;;;;;;;;;4916627;29;19915;-87
2022/09/17 07:05:15;;;;;;;;;;;;;;;;;;4910147;29;19978;-89
2022/09/17 07:07:40;;;;;;;;;;;;;;;;;;4912502;29;19921;-89
2022/09/17 07:10:05;;;;;;;;;;;;;;;;;;4920058;29;20381;-89
2022/09/17 07:12:30;;;;;;;;;;;;;;;;;;4915484;29;19918;-90
2022/09/17 07:14:55;;;;;;;;;;;;;;;;;;4914339;29;19922;-89
2022/09/17 07:17:20;;;;;;;;;;;;;;;;;;4896739;29;19991;-89
2022/09/17 07:19:46;;;;;;;;;;;;;;;;;;4918977;29;19915;-89
2022/09/17 07:22:12;;;;;;;;;;;;;;;;;;4918980;29;20431;-88
2022/09/17 07:24:38;;;;;;;;;;;;;;;;;;4919916;29;19961;-89
2022/09/17 07:27:03;;;;;;;;;;;;;;;;;;4912303;29;19954;-90
2022/09/17 07:29:28;;;;;;;;;;;;;;;;;;4910674;29;19939;-89
2022/09/17 07:31:53;;;;;;;;;;;;;;;;;;4908610;29;19926;-89
2022/09/17 07:34:18;;;;;;;;;;;;;;;;;;4910729;29;19922;-89
2022/09/17 07:36:43;;;;;;;;;;;;;;;;;;4908975;29;19994;-88
2022/09/17 07:39:10;;;;;;;;;;;;;;;;;;4904962;29;20438;-88
2022/09/17 07:41:35;;;;;;;;;;;;;;;;;;4909606;29;19998;-88
2022/09/17 07:44:01;;;;;;;;;;;;;;;;;;4918494;29;20064;-88
2022/09/17 07:46:26;;;;;;;;;;;;;;;;;;4910909;29;19971;-86
2022/09/17 07:48:51;;;;;;;;;;;;;;;;;;4908942;29;19927;-87
2022/09/17 07:51:17;;;;;;;;;;;;;;;;;;4899853;29;19920;-89
2022/09/17 07:53:42;;;;;;;;;;;;;;;;;;4907981;29;19915;-89
2022/09/17 07:56:07;;;;;;;;;;;;;;;;;;4905422;29;19915;-87
2022/09/17 07:58:32;;;;;;;;;;;;;;;;;;4909289;29;19922;-87
2022/09/17 08:00:58;;;;;;;;;;;;;;;;;;4909685;29;19926;-87
2022/09/17 08:03:23;;;;;;;;;;;;;;;;;;4916719;29;20319;-86
2022/09/17 08:05:48;;;;;;;;;;;;;;;;;;4924463;29;20006;-87
2022/09/17 08:08:13;;;;;;;;;;;;;;;;;;4914614;29;19915;-86
2022/09/17 08:10:38;;;;;;;;;;;;;;;;;;4907560;29;19922;-87
2022/09/17 08:13:03;;;;;;;;;;;;;;;;;;4900632;29;20492;-88
2022/09/17 08:15:29;;;;;;;;;;;;;;;;;;4907317;29;19974;-89
2022/09/17 08:17:54;;;;;;;;;;;;;;;;;;4906537;29;19919;-85
2022/09/17 08:20:19;;;;;;;;;;;;;;;;;;4906604;29;19915;-86
2022/09/17 08:22:44;;;;;;;;;;;;;;;;;;4906758;29;20309;-87
2022/09/17 08:25:09;;;;;;;;;;;;;;;;;;4904926;29;20297;-85
2022/09/17 08:27:35;;;;;;;;;;;;;;;;;;4906636;29;19943;-87
2022/09/17 08:30:00;;;;;;;;;;;;;;;;;;4910097;29;19923;-87
2022/09/17 08:32:25;;;;;;;;;;;;;;;;;;4905906;29;20006;-86
2022/09/17 08:34:52;;;;;;;;;;;;;;;;;;4907615;29;19915;-87
2022/09/17 08:37:18;;;;;;;;;;;;;;;;;;4907069;29;20283;-87
2022/09/17 08:39:43;;;;;;;;;;;;;;;;;;4908413;29;19963;-86
2022/09/17 08:42:08;;;;;;;;;;;;;;;;;;4913971;29;19916;-87
2022/09/17 08:44:33;;;;;;;;;;;;;;;;;;4910680;29;19915;-87
2022/09/17 08:46:59;;;;;;;;;;;;;;;;;;4906699;29;19915;-86
2022/09/17 08:49:24;;;;;;;;;;;;;;;;;;4908960;29;19915;-88
2022/09/17 08:51:50;;;;;;;;;;;;;;;;;;4909869;29;19976;-86
2022/09/17 08:54:16;;;;;;;;;;;;;;;;;;4905983;29;19919;-89
2022/09/17 08:56:41;;;;;;;;;;;;;;;;;;4905416;29;19918;-86
2022/09/17 08:59:07;;;;;;;;;;;;;;;;;;4912108;29;19926;-89
2022/09/17 09:01:32;;;;;;;;;;;;;;;;;;4907432;29;19920;-87
2022/09/17 09:03:59;;;;;;;;;;;;;;;;;;4907821;29;20494;-89
2022/09/17 09:06:24;;;;;;;;;;;;;;;;;;4908009;29;19915;-87
2022/09/17 09:08:50;;;;;;;;;;;;;;;;;;4906153;29;20266;-92
2022/09/17 09:11:15;;;;;;;;;;;;;;;;;;4910076;29;20274;-89
2022/09/17 09:13:41;;;;;;;;;;;;;;;;;;4914461;29;19922;-90
2022/09/17 09:16:06;;;;;;;;;;;;;;;;;;4905933;29;19920;-89
2022/09/17 09:18:31;;;;;;;;;;;;;;;;;;4910124;29;19915;-89
2022/09/17 09:20:56;;;;;;;;;;;;;;;;;;4906513;29;20339;-87
2022/09/17 09:23:22;;;;;;;;;;;;;;;;;;4907715;29;20166;-88
2022/09/17 09:25:47;;;;;;;;;;;;;;;;;;4907823;29;19915;-87
2022/09/17 09:28:12;;;;;;;;;;;;;;;;;;4914035;29;19923;-89
2022/09/17 09:30:37;;;;;;;;;;;;;;;;;;4913516;29;19919;-88
2022/09/17 09:33:03;;;;;;;;;;;;;;;;;;4908435;29;19918;-91
2022/09/17 09:35:28;;;;;;;;;;;;;;;;;;4916230;29;20018;-90
2022/09/17 09:37:53;;;;;;;;;;;;;;;;;;4907561;29;19915;-88
2022/09/17 09:40:18;;;;;;;;;;;;;;;;;;4906925;29;19919;-88
2022/09/17 09:42:44;;;;;;;;;;;;;;;;;;4906616;29;20377;-87
2022/09/17 09:45:09;;;;;;;;;;;;;;;;;;4903619;29;19919;-87
2022/09/17 09:47:35;;;;;;;;;;;;;;;;;;4905490;29;19919;-88
2022/09/17 09:50:00;;;;;;;;;;;;;;;;;;4912324;29;20013;-90
2022/09/17 09:52:25;;;;;;;;;;;;;;;;;;4920576;29;19919;-87
2022/09/17 09:54:50;;;;;;;;;;;;;;;;;;4915764;29;19918;-87
2022/09/17 09:57:16;;;;;;;;;;;;;;;;;;4917090;29;19978;-88
2022/09/17 09:59:41;;;;;;;;;;;;;;;;;;4921331;29;19926;-88
2022/09/17 10:02:06;;;;;;;;;;;;;;;;;;4915301;29;19923;-86
2022/09/17 10:04:31;;;;;;;;;;;;;;;;;;4916877;29;19915;-88
2022/09/17 10:06:56;;;;;;;;;;;;;;;;;;4913796;29;19982;-88
2022/09/17 10:09:22;;;;;;;;;;;;;;;;;;4912381;29;19984;-87
2022/09/17 10:11:47;;;;;;;;;;;;;;;;;;4920336;29;19919;-86
2022/09/17 10:14:12;;;;;;;;;;;;;;;;;;4911756;29;19911;-86
2022/09/17 10:16:37;;;;;;;;;;;;;;;;;;4928510;29;19921;-86
2022/09/17 10:19:02;;;;;;;;;;;;;;;;;;4913751;29;19911;-87
2022/09/17 10:21:28;;;;;;;;;;;;;;;;;;4922766;29;20010;-86
2022/09/17 10:23:53;;;;;;;;;;;;;;;;;;4920454;29;19963;-89
2022/09/17 10:26:18;;;;;;;;;;;;;;;;;;4916862;29;19911;-87
2022/09/17 10:28:43;;;;;;;;;;;;;;;;;;4913417;29;19918;-87
2022/09/17 10:31:09;;;;;;;;;;;;;;;;;;4920069;29;19921;-89
2022/09/17 10:33:35;;;;;;;;;;;;;;;;;;4923269;29;19922;-88
2022/09/17 10:36:01;;;;;;;;;;;;;;;;;;4930634;29;19994;-87
2022/09/17 10:38:26;;;;;;;;;;;;;;;;;;4922988;29;20010;-85
2022/09/17 10:40:51;;;;;;;;;;;;;;;;;;4913030;29;19926;-89
2022/09/17 10:43:16;;;;;;;;;;;;;;;;;;4907849;29;19918;-89
2022/09/17 10:45:42;;;;;;;;;;;;;;;;;;4896778;29;20330;-86
2022/09/17 10:48:07;;;;;;;;;;;;;;;;;;4923795;29;19918;-90
2022/09/17 10:50:32;;;;;;;;;;;;;;;;;;4926969;29;19916;-87
2022/09/17 10:52:57;;;;;;;;;;;;;;;;;;4918409;29;19937;-88
2022/09/17 10:55:22;;;;;;;;;;;;;;;;;;4915349;29;20388;-88
2022/09/17 10:57:47;;;;;;;;;;;;;;;;;;4916971;29;19921;-87
2022/09/17 11:00:14;;;;;;;;;;;;;;;;;;4913503;29;19957;-87
2022/09/17 11:02:40;;;;;;;;;;;;;;;;;;4920657;29;19943;-88
2022/09/17 11:05:05;;;;;;;;;;;;;;;;;;4916246;29;19915;-89
2022/09/17 11:07:30;;;;;;;;;;;;;;;;;;4918557;29;19957;-84
2022/09/17 11:09:55;;;;;;;;;;;;;;;;;;4920367;29;19926;-88
2022/09/17 11:12:20;;;;;;;;;;;;;;;;;;4918453;29;20076;-88
2022/09/17 11:14:46;;;;;;;;;;;;;;;;;;4911207;29;20362;-86
2022/09/17 11:17:11;;;;;;;;;;;;;;;;;;4915042;29;19954;-86
2022/09/17 11:19:36;;;;;;;;;;;;;;;;;;4912584;29;19923;-86
2022/09/17 11:22:02;;;;;;;;;;;;;;;;;;4897763;29;20325;-87
2022/09/17 11:24:27;;;;;;;;;;;;;;;;;;4909554;29;19939;-86
2022/09/17 11:26:52;;;;;;;;;;;;;;;;;;4909132;29;19951;-86
2022/09/17 11:29:17;;;;;;;;;;;;;;;;;;4905215;29;19926;-83
2022/09/17 11:31:42;;;;;;;;;;;;;;;;;;4915720;29;19975;-86
2022/09/17 11:34:07;;;;;;;;;;;;;;;;;;4915596;29;19915;-86
2022/09/17 11:36:33;;;;;;;;;;;;;;;;;;4913483;29;19962;-84
2022/09/17 11:38:58;;;;;;;;;;;;;;;;;;4907002;29;19979;-85
2022/09/17 11:41:23;;;;;;;;;;;;;;;;;;4906695;29;19925;-86
2022/09/17 11:43:48;;;;;;;;;;;;;;;;;;4909686;29;20006;-85
2022/09/17 11:46:13;;;;;;;;;;;;;;;;;;4901529;29;20377;-86
2022/09/17 11:48:39;;;;;;;;;;;;;;;;;;4916267;29;19947;-85
2022/09/17 11:51:04;;;;;;;;;;;;;;;;;;4919338;29;19927;-85
2022/09/17 11:53:29;;;;;;;;;;;;;;;;;;4916311;29;19919;-85
2022/09/17 11:55:54;;;;;;;;;;;;;;;;;;4910900;29;19930;-86
2022/09/17 11:58:19;;;;;;;;;;;;;;;;;;4915587;29;19975;-84
2022/09/17 12:00:45;;;;;;;;;;;;;;;;;;4907758;29;19938;-85
2022/09/17 12:03:10;;;;;;;;;;;;;;;;;;4907638;29;19915;-86
2022/09/17 12:05:36;;;;;;;;;;;;;;;;;;4909903;29;19931;-85
2022/09/17 12:08:01;;;;;;;;;;;;;;;;;;4914036;29;19930;-88
2022/09/17 12:10:26;;;;;;;;;;;;;;;;;;4913098;29;19974;-88
2022/09/17 12:12:52;;;;;;;;;;;;;;;;;;4914180;29;19918;-88
2022/09/17 12:15:17;;;;;;;;;;;;;;;;;;4908396;29;19921;-88
2022/09/17 12:17:43;;;;;;;;;;;;;;;;;;4919976;29;20394;-89
2022/09/17 12:20:08;;;;;;;;;;;;;;;;;;4922255;29;20370;-90
2022/09/17 12:22:34;;;;;;;;;;;;;;;;;;4911297;29;19923;-89
2022/09/17 12:24:59;;;;;;;;;;;;;;;;;;4913571;29;19919;-89
2022/09/17 12:27:24;;;;;;;;;;;;;;;;;;4912463;29;19970;-89
2022/09/17 12:29:49;;;;;;;;;;;;;;;;;;4915401;29;19919;-88
2022/09/17 12:32:14;;;;;;;;;;;;;;;;;;4920590;29;19942;-91
2022/09/17 12:34:40;;;;;;;;;;;;;;;;;;4915493;29;19938;-92
2022/09/17 12:37:05;;;;;;;;;;;;;;;;;;4921747;29;20494;-90
2022/09/17 12:39:30;;;;;;;;;;;;;;;;;;4924412;29;19922;-91
2022/09/17 12:41:55;;;;;;;;;;;;;;;;;;4918810;29;19922;-89
2022/09/17 12:44:20;;;;;;;;;;;;;;;;;;4914852;29;20037;-88
2022/09/17 12:46:46;;;;;;;;;;;;;;;;;;4918376;29;19922;-91
2022/09/17 12:49:11;;;;;;;;;;;;;;;;;;4932861;29;19911;-90
2022/09/17 12:51:36;;;;;;;;;;;;;;;;;;4921344;29;19949;-90
2022/09/17 12:54:01;;;;;;;;;;;;;;;;;;4927868;29;20521;-90
2022/09/17 12:56:26;;;;;;;;;;;;;;;;;;4922351;29;19954;-92
2022/09/17 12:58:52;;;;;;;;;;;;;;;;;;4917348;29;19915;-90
2022/09/17 13:01:17;;;;;;;;;;;;;;;;;;4922942;29;19926;-88
2022/09/17 13:03:42;;;;;;;;;;;;;;;;;;4928117;29;19915;-89
2022/09/17 13:06:08;;;;;;;;;;;;;;;;;;4922033;29;19973;-89
2022/09/17 13:08:33;;;;;;;;;;;;;;;;;;4918544;29;19915;-89
2022/09/17 13:10:58;;;;;;;;;;;;;;;;;;4908337;29;19922;-90
2022/09/17 13:13:23;;;;;;;;;;;;;;;;;;4913576;29;19919;-91
2022/09/17 13:15:48;;;;;;;;;;;;;;;;;;4918557;29;20005;-89
2022/09/17 13:18:14;;;;;;;;;;;;;;;;;;4907736;29;19918;-90
2022/09/17 13:20:39;;;;;;;;;;;;;;;;;;4918083;29;19919;-88
2022/09/17 13:23:04;;;;;;;;;;;;;;;;;;4918165;29;19915;-87
2022/09/17 13:25:29;;;;;;;;;;;;;;;;;;4918729;29;19919;-89
2022/09/17 13:27:54;;;;;;;;;;;;;;;;;;4918401;29;19915;-90
2022/09/17 13:30:20;;;;;;;;;;;;;;;;;;4918663;29;20398;-90
2022/09/17 13:32:45;;;;;;;;;;;;;;;;;;4918806;29;19922;-91
2022/09/17 13:35:13;;;;;;;;;;;;;;;;;;4917768;29;20019;-89
2022/09/17 15:02:31;;;;;;;;;;;;;;;;;;;;;
2022/09/17 16:43:14;;;;;;;;;;;;;;;;;;;;;
2022/09/17 16:48:31;;;;;;;;;;;;;;;;;;4855877;29;19916;-87
2022/09/17 16:53:47;;;;;;;;;;;;;;;;;;4901354;29;20377;-86
2022/09/17 17:01:50;;;;;;;;;;;;;;;;;;4887431;29;20016;-88
2022/09/17 17:07:07;;;;;;;;;;;;;;;;;;4895744;29;19923;-87
2022/09/17 17:12:37;;;;;;;;;;;;;;;;;;4899250;29;20426;-86
2022/09/17 17:18:04;;;;;;;;;;;;;;;;;;;;;
2022/09/17 17:23:18;;;;;;;;;;;;;;;;;;4935386;29;19918;-86
2022/09/17 17:26:02;;;;;;;;;;;;;;;;;;;;;
2022/09/17 17:34:28;;;;;;;;;;;;;;;;;;4920116;29;19920;-87
2022/09/17 17:39:54;;;;;;;;;;;;;;;;;;4868787;29;20389;-88
2022/09/17 17:42:19;;;;;;;;;;;;;;;;;;4911471;29;19915;-86
2022/09/17 17:44:47;;;;;;;;;;;;;;;;;;4944038;29;19922;-87
2022/09/17 18:09:36;;;;;;;;;;;;;;;;;;4912699;29;19993;-86
2022/09/17 18:12:04;;;;;;;;;;;;;;;;;;4912841;29;20288;-86
2022/09/17 18:17:36;;;;;;;;;;;;;;;;;;;;;
2022/09/17 18:20:11;;;;;;;;;;;;;;;;;;4910417;29;20439;-86
2022/09/17 18:25:30;;;;;;;;;;;;;;;;;;4897923;29;19920;-87
2022/09/17 18:56:31;;;;;;;;;;;;;;;;;;4779545;30;19997;-87
2022/09/17 23:49:08;;;;;;;;;;;;;;;;;;4918560;29;19935;-88
2022/09/17 23:51:33;;;;;;;;;;;;;;;;;;4913356;29;19926;-88
2022/09/17 23:53:58;;;;;;;;;;;;;;;;;;4917240;29;19919;-89
2022/09/17 23:56:24;;;;;;;;;;;;;;;;;;4919431;29;20537;-89
2022/09/17 23:58:49;;;;;;;;;;;;;;;;;;4905017;29;20352;-89
